Time;durP1;ratioP1;P1;durP2;ratioP2;P2;SDS_P1;SDS_P2;PMS_P1;PMS_P2;Temp;Humidity;BMP_temperature;BMP_pressure;BME280_temperature;BME280_humidity;BME280_pressure;Samples;Min_cycle;Max_cycle;Signal;HPM_P1;HPM_P2
2021/01/22 00:01:45;;;;;;;20.80;12.37;;;;;;;2.67;81.09;97696.50;1769483;80;21701;-79
2021/01/22 00:04:12;;;;;;;21.37;12.18;;;;;;;2.66;81.06;97687.09;1761978;81;21140;-79
2021/01/22 00:06:39;;;;;;;20.68;11.30;;;;;;;2.63;81.04;97687.23;1762220;80;21517;-80
2021/01/22 00:09:06;;;;;;;20.82;11.80;;;;;;;2.59;80.94;97698.61;1783282;80;21682;-80
2021/01/22 00:11:33;;;;;;;22.77;12.73;;;;;;;2.51;80.93;97683.97;1779935;80;21141;-79
2021/01/22 00:14:00;;;;;;;20.40;12.85;;;;;;;2.45;81.01;97682.52;1772734;79;21600;-80
2021/01/22 00:16:27;;;;;;;19.77;11.35;;;;;;;2.38;81.02;97678.11;1749252;80;21186;-79
2021/01/22 00:18:54;;;;;;;24.95;13.40;;;;;;;2.29;80.98;97678.52;1765280;80;21210;-79
2021/01/22 00:21:22;;;;;;;19.32;12.68;;;;;;;2.26;81.10;97664.50;1761892;81;21628;-79
2021/01/22 00:23:49;;;;;;;17.77;12.53;;;;;;;2.20;81.10;97671.23;1770167;80;21579;-78
2021/01/22 00:26:16;;;;;;;23.47;12.90;;;;;;;2.15;81.12;97663.70;1774808;79;21188;-80
2021/01/22 00:28:43;;;;;;;23.87;13.00;;;;;;;2.10;81.15;97662.25;1774377;80;21209;-80
2021/01/22 00:31:10;;;;;;;19.10;12.07;;;;;;;2.06;81.20;97658.16;1762171;81;22166;-79
2021/01/22 00:33:37;;;;;;;19.42;12.80;;;;;;;1.99;81.23;97659.73;1779127;80;21152;-79
2021/01/22 00:36:05;;;;;;;22.65;12.63;;;;;;;1.96;81.29;97653.44;1773982;80;21196;-80
2021/01/22 00:38:31;;;;;;;;;;;;;;;1.93;81.35;97656.16;1767240;80;21132;-80
2021/01/22 00:40:59;;;;;;;22.02;11.70;;;;;;;1.91;81.39;97652.81;1769654;80;20244;-80
2021/01/22 00:43:26;;;;;;;23.20;13.30;;;;;;;1.90;81.48;97645.97;1760984;81;21213;-79
2021/01/22 00:45:53;;;;;;;20.02;11.28;;;;;;;1.91;81.54;97647.66;1770765;80;21147;-81
2021/01/22 00:48:20;;;;;;;20.85;11.97;;;;;;;1.93;81.55;97653.58;1763478;79;21718;-79
2021/01/22 00:50:48;;;;;;;18.60;12.07;;;;;;;1.96;81.62;97652.16;1762349;80;21167;-79
2021/01/22 00:53:16;;;;;;;19.37;11.73;;;;;;;1.99;81.57;97643.00;1767450;80;21598;-80
2021/01/22 00:55:43;;;;;;;19.05;11.45;;;;;;;2.01;81.53;97648.06;1770424;80;22375;-82
2021/01/22 00:58:10;;;;;;;19.60;12.23;;;;;;;2.07;81.62;97639.22;1789560;80;21456;-79
2021/01/22 01:00:37;;;;;;;19.05;11.28;;;;;;;2.11;81.57;97640.77;1772626;80;21132;-80
2021/01/22 01:03:05;;;;;;;21.75;12.93;;;;;;;2.15;81.58;97629.41;1774669;80;21265;-79
2021/01/22 01:05:32;;;;;;;18.80;11.90;;;;;;;2.18;81.57;97623.66;1763255;80;21661;-78
2021/01/22 01:07:59;;;;;;;21.15;12.07;;;;;;;2.22;81.49;97610.20;1761899;81;21202;-83
2021/01/22 01:10:26;;;;;;;19.57;12.03;;;;;;;2.24;81.51;97601.93;1765378;80;21151;-80
2021/01/22 01:12:53;;;;;;;21.50;11.20;;;;;;;2.27;81.48;97597.95;1772216;80;21559;-81
2021/01/22 01:15:20;;;;;;;19.07;11.95;;;;;;;2.29;81.57;97596.11;1771042;80;21211;-79
2021/01/22 01:17:47;;;;;;;17.87;11.80;;;;;;;2.34;81.52;97598.02;1764647;80;21460;-79
2021/01/22 01:20:14;;;;;;;18.45;11.70;;;;;;;2.38;81.51;97600.84;1783158;80;21256;-80
2021/01/22 01:22:41;;;;;;;17.17;11.35;;;;;;;2.41;81.45;97594.25;1762061;80;21469;-80
2021/01/22 01:25:09;;;;;;;15.80;11.05;;;;;;;2.44;81.51;97591.53;1763113;80;21180;-82
2021/01/22 01:27:36;;;;;;;20.60;11.57;;;;;;;2.48;81.48;97595.23;1766647;79;21183;-81
2021/01/22 01:30:06;;;;;;;18.62;10.93;;;;;;;2.50;81.47;97593.44;1763011;80;21210;-78
2021/01/22 01:32:33;;;;;;;17.02;10.75;;;;;;;2.52;81.52;97591.59;1761820;81;21200;-80
2021/01/22 01:34:59;;;;;;;15.90;10.65;;;;;;;2.55;81.50;97582.42;1770441;80;21766;-84
2021/01/22 01:37:26;;;;;;;17.05;10.25;;;;;;;2.55;81.46;97581.14;1764082;80;21139;-85
2021/01/22 01:39:53;;;;;;;17.82;10.98;;;;;;;2.54;81.42;97582.05;1762252;80;21271;-80
2021/01/22 01:42:20;;;;;;;16.27;11.25;;;;;;;2.54;81.43;97574.33;1765553;80;21262;-82
2021/01/22 01:44:47;;;;;;;16.35;10.60;;;;;;;2.54;81.49;97578.19;1773003;80;21276;-79
2021/01/22 01:47:14;;;;;;;20.27;10.23;;;;;;;2.58;81.64;97574.11;1767662;80;21184;-81
2021/01/22 01:49:41;;;;;;;20.43;11.30;;;;;;;2.58;81.64;97574.11;1761972;81;21180;-81
2021/01/22 01:52:09;;;;;;;15.00;10.13;;;;;;;2.60;81.47;97567.58;1770801;80;21185;-80
2021/01/22 01:54:38;;;;;;;14.78;9.65;;;;;;;2.60;81.43;97555.98;1786492;79;21673;-79
2021/01/22 01:57:05;;;;;;;17.48;10.43;;;;;;;2.59;81.43;97555.16;1773551;79;21620;-79
2021/01/22 01:59:32;;;;;;;16.67;10.00;;;;;;;2.61;81.44;97552.52;1781555;80;21226;-82
2021/01/22 02:02:01;;;;;;;15.93;10.53;;;;;;;2.60;81.42;97553.41;1764912;80;21160;-79
2021/01/22 02:04:29;;;;;;;16.23;10.38;;;;;;;2.61;81.43;97548.20;1762019;81;21157;-78
2021/01/22 02:06:56;;;;;;;17.10;10.32;;;;;;;2.61;81.43;97547.37;1777180;80;21670;-79
2021/01/22 02:09:23;;;;;;;15.00;10.25;;;;;;;2.61;81.44;97538.34;1762463;81;21235;-80
2021/01/22 02:11:50;;;;;;;;;;;;;;;2.63;81.48;97548.10;1768911;80;21616;-80
2021/01/22 02:14:19;;;;;;;16.45;9.95;;;;;;;2.62;81.43;97546.45;1764714;80;20236;-79
2021/01/22 02:16:46;;;;;;;15.15;9.65;;;;;;;2.62;81.47;97533.56;1767818;80;21199;-80
2021/01/22 02:19:16;;;;;;;17.00;9.20;;;;;;;2.62;81.46;97532.27;1767114;80;21612;-80
2021/01/22 02:21:43;;;;;;;18.05;10.05;;;;;;;2.63;81.43;97540.38;1761297;80;21212;-83
2021/01/22 02:24:19;;;;;;;15.10;9.00;;;;;;;2.64;81.49;97524.02;1764565;80;21198;-78
2021/01/22 02:27:02;;;;;;;14.87;8.38;;;;;;;2.68;81.56;97525.52;1763103;80;21585;-78
2021/01/22 02:29:32;;;;;;;15.95;9.58;;;;;;;2.69;81.49;97511.75;1698602;84;21310;-79
2021/01/22 02:32:04;;;;;;;17.50;10.13;;;;;;;2.72;81.53;97510.73;1686417;84;21176;-78
2021/01/22 02:34:34;;;;;;;15.43;8.18;;;;;;;2.74;81.51;97509.74;1691530;84;22335;-79
2021/01/22 02:37:05;;;;;;;14.18;8.80;;;;;;;2.77;81.50;97504.42;1694840;84;21643;-80
2021/01/22 02:39:40;;;;;;;18.23;9.20;;;;;;;2.80;81.48;97501.72;1677748;84;21643;-79
2021/01/22 02:42:08;;;;;;;17.75;9.10;;;;;;;2.79;81.45;97501.33;1681367;84;21615;-80
2021/01/22 02:44:36;;;;;;;17.00;9.08;;;;;;;2.79;81.45;97497.46;1681847;84;21228;-79
2021/01/22 02:47:11;;;;;;;;;;;;;;;2.81;81.44;97503.38;1688748;84;21223;-79
2021/01/22 02:49:38;;;;;;;13.38;8.68;;;;;;;2.81;81.49;97494.36;1683943;84;20562;-79
2021/01/22 02:54:41;;;;;;;14.30;8.23;;;;;;;2.79;81.46;97492.30;1657873;82;21274;-84
2021/01/22 02:57:19;;;;;;;15.72;8.75;;;;;;;2.79;81.46;97500.03;1692235;83;21231;-85
2021/01/22 03:00:23;;;;;;;15.80;9.60;;;;;;;2.86;81.57;97493.67;1811506;78;22393;-87
2021/01/22 03:03:28;;;;;;;17.67;9.53;;;;;;;2.85;81.52;97499.72;1754286;80;21226;-78
2021/01/22 03:05:57;;;;;;;18.37;10.25;;;;;;;2.87;81.46;97486.30;1767234;80;22092;-84
2021/01/22 03:08:27;;;;;;;16.17;10.05;;;;;;;2.88;81.40;97487.95;1771570;80;21090;-84
2021/01/22 03:10:55;;;;;;;16.55;9.45;;;;;;;2.88;81.41;97478.94;1752062;80;21219;-85
2021/01/22 03:13:25;;;;;;;14.40;8.80;;;;;;;2.86;81.33;97483.36;1761770;80;21168;-80
2021/01/22 03:15:52;;;;;;;16.85;9.70;;;;;;;2.86;81.31;97478.20;1760881;80;21135;-81
2021/01/22 03:18:21;;;;;;;16.57;9.28;;;;;;;2.83;81.33;97480.94;1758583;81;22000;-85
2021/01/22 03:20:49;;;;;;;12.60;8.28;;;;;;;2.80;81.31;97470.80;1756922;80;21168;-86
2021/01/22 03:23:18;;;;;;;18.23;9.40;;;;;;;2.81;81.37;97472.45;1760214;80;21157;-86
2021/01/22 03:25:46;;;;;;;17.80;9.43;;;;;;;2.80;81.37;97475.95;1759230;80;21168;-87
2021/01/22 03:28:15;;;;;;;;;;;;;;;2.79;81.35;97463.95;1771549;80;21127;-85
2021/01/22 03:30:42;;;;;;;13.48;9.18;;;;;;;2.79;81.38;97458.80;1759337;80;21205;-83
2021/01/22 03:33:09;;;;;;;17.10;9.55;;;;;;;2.78;81.39;97463.59;1749820;80;21216;-77
2021/01/22 03:35:36;;;;;;;15.70;9.40;;;;;;;2.80;81.43;97455.33;1743051;80;21194;-87
2021/01/22 03:38:03;;;;;;;15.68;9.33;;;;;;;2.81;81.43;97456.16;1755088;80;21171;-86
2021/01/22 03:40:30;;;;;;;14.47;9.28;;;;;;;2.83;81.40;97443.58;1765038;80;21139;-80
2021/01/22 03:42:57;;;;;;;14.40;9.70;;;;;;;2.83;81.36;97439.70;1750996;80;21260;-88
2021/01/22 03:45:24;;;;;;;22.42;10.00;;;;;;;2.83;81.35;97439.70;1744741;80;21593;-87
2021/01/22 03:47:51;;;;;;;15.65;8.88;;;;;;;2.84;81.37;97472.75;1760100;80;21195;-83
2021/01/22 03:50:18;;;;;;;19.15;10.03;;;;;;;2.83;81.31;97468.06;1754930;80;21667;-87
2021/01/22 03:52:45;;;;;;;15.20;9.50;;;;;;;2.82;81.29;97461.22;1751360;81;21240;-85
2021/01/22 03:55:12;;;;;;;14.80;9.53;;;;;;;2.84;81.38;97461.16;1754470;80;21417;-81
2021/01/22 03:57:39;;;;;;;14.83;9.58;;;;;;;2.86;81.35;97446.45;1752361;80;22551;-85
2021/01/22 04:00:07;;;;;;;17.20;9.53;;;;;;;2.86;81.33;97439.55;1772234;80;21212;-83
2021/01/22 04:02:34;;;;;;;15.03;8.98;;;;;;;2.86;81.35;97429.23;1767323;80;21236;-78
2021/01/22 04:05:00;;;;;;;13.25;9.13;;;;;;;2.88;81.38;97426.56;1764193;80;21651;-80
2021/01/22 04:07:28;;;;;;;14.60;9.70;;;;;;;2.89;81.33;97418.76;1773285;80;21211;-85
2021/01/22 04:09:54;;;;;;;15.18;8.90;;;;;;;2.93;81.49;97403.95;1756730;80;21614;-86
2021/01/22 04:12:21;;;;;;;15.80;8.88;;;;;;;2.99;81.51;97407.95;1745297;80;21180;-85
2021/01/22 04:14:48;;;;;;;13.80;8.50;;;;;;;3.02;81.44;97400.88;1769303;80;21218;-86
2021/01/22 04:17:15;;;;;;;14.07;8.83;;;;;;;3.06;81.38;97391.25;1757190;80;21198;-80
2021/01/22 04:19:45;;;;;;;12.33;8.10;;;;;;;3.09;81.40;97383.34;1747991;80;22057;-80
2021/01/22 04:22:12;;;;;;;15.80;9.10;;;;;;;3.11;81.37;97391.84;1749539;80;21224;-78
2021/01/22 04:24:39;;;;;;;14.50;8.90;;;;;;;3.16;81.46;97379.50;1762772;80;21188;-85
2021/01/22 04:27:06;;;;;;;14.03;8.48;;;;;;;3.17;81.37;97379.89;1765071;80;21124;-84
2021/01/22 04:29:33;;;;;;;12.98;9.30;;;;;;;3.17;81.40;97369.58;1760737;80;21626;-84
2021/01/22 04:32:00;;;;;;;15.78;8.05;;;;;;;3.19;81.38;97365.61;1759590;80;21202;-78
2021/01/22 04:34:27;;;;;;;12.58;8.18;;;;;;;3.19;81.36;97363.86;1751735;80;21214;-77
2021/01/22 04:36:54;;;;;;;13.60;7.78;;;;;;;3.17;81.31;97360.56;1757346;80;21139;-86
2021/01/22 04:39:21;;;;;;;14.40;8.43;;;;;;;3.18;81.40;97354.94;1765420;80;21174;-79
2021/01/22 04:41:48;;;;;;;14.75;8.75;;;;;;;3.18;81.38;97349.31;1764528;80;21167;-87
2021/01/22 04:44:15;;;;;;;13.05;7.90;;;;;;;3.17;81.39;97347.66;1756071;80;21199;-81
2021/01/22 04:46:45;;;;;;;14.30;7.03;;;;;;;3.17;81.50;97350.24;1754882;80;21599;-84
2021/01/22 04:49:12;;;;;;;12.20;7.42;;;;;;;3.19;81.60;97341.94;1765263;80;21223;-77
2021/01/22 04:51:41;;;;;;;;;;;;;;;3.25;81.65;97351.94;1759423;80;21180;-85
2021/01/22 04:54:15;;;;;;;14.38;7.37;;;;;;;3.29;81.62;97349.55;1752887;80;20214;-85
2021/01/22 04:56:45;;;;;;;14.40;7.60;;;;;;;3.35;81.70;97347.91;1758050;80;21429;-87
2021/01/22 04:59:22;;;;;;;14.18;7.47;;;;;;;3.43;81.78;97338.92;1761231;80;21178;-83
2021/01/22 05:01:50;;;;;;;13.70;6.90;;;;;;;3.49;81.79;97330.38;1745928;80;21106;-77
2021/01/22 05:04:18;;;;;;;10.30;6.58;;;;;;;3.55;81.70;97339.51;1767798;80;21149;-83
2021/01/22 05:06:48;;;;;;;11.30;7.53;;;;;;;3.61;81.76;97341.73;1766973;80;26485;-85
2021/01/22 05:09:15;;;;;;;11.28;6.50;;;;;;;3.64;81.73;97353.20;1759505;80;21209;-83
2021/01/22 05:11:42;;;;;;;14.63;6.53;;;;;;;3.68;81.78;97360.30;1738673;80;21256;-78
2021/01/22 05:14:09;;;;;;;10.15;6.80;;;;;;;3.75;81.90;97357.29;1755625;80;21190;-80
2021/01/22 05:16:36;;;;;;;10.18;6.33;;;;;;;3.78;81.81;97359.69;1760363;80;21186;-87
2021/01/22 05:19:22;;;;;;;13.85;6.80;;;;;;;3.80;81.73;97350.08;1759118;80;21168;-84
2021/01/22 05:21:49;;;;;;;12.75;7.05;;;;;;;3.84;81.70;97344.74;1767842;80;21207;-79
2021/01/22 05:24:21;;;;;;;10.60;6.95;;;;;;;3.84;81.64;97333.13;1742046;80;21229;-84
2021/01/22 05:26:58;;;;;;;12.35;6.20;;;;;;;3.85;81.66;97330.47;1747385;80;21817;-85
2021/01/22 05:29:26;;;;;;;11.97;5.92;;;;;;;3.86;81.62;97327.42;1749470;80;21097;-82
2021/01/22 05:31:53;;;;;;;11.60;6.55;;;;;;;3.87;81.60;97311.03;1761573;80;21625;-84
2021/01/22 05:34:20;;;;;;;11.28;6.00;;;;;;;3.90;81.71;97310.85;1766852;80;21244;-86
2021/01/22 05:36:49;;;;;;;11.45;6.35;;;;;;;3.91;81.68;97309.45;1741557;80;21156;-85
2021/01/22 05:39:22;;;;;;;10.60;5.58;;;;;;;3.93;81.65;97290.84;1743706;80;22336;-82
2021/01/22 05:41:54;;;;;;;10.00;6.53;;;;;;;3.97;81.67;97294.06;1758161;80;21199;-79
2021/01/22 05:44:25;;;;;;;14.00;7.55;;;;;;;3.99;81.59;97287.89;1766883;80;21159;-82
2021/01/22 05:47:08;;;;;;;20.08;11.03;;;;;;;3.99;81.46;97284.02;1765319;80;21183;-79
2021/01/22 05:52:38;;;;;;;12.05;7.20;;;;;;;3.93;81.32;97263.73;1826279;77;22760;-85
2021/01/22 05:55:23;;;;;;;17.50;8.30;;;;;;;3.87;81.44;97277.47;1791464;79;21168;-84
2021/01/22 05:57:50;;;;;;;13.78;8.38;;;;;;;3.82;81.39;97267.41;1792487;79;21303;-77
2021/01/22 06:00:18;;;;;;;17.87;9.33;;;;;;;3.76;81.37;97269.89;1784217;79;21598;-85
2021/01/22 06:02:45;;;;;;;15.40;9.15;;;;;;;3.74;81.36;97265.27;1794858;79;21136;-77
2021/01/22 06:05:15;;;;;;;15.25;8.45;;;;;;;3.70;81.32;97253.48;1796039;79;21675;-83
2021/01/22 06:07:46;;;;;;;16.07;9.60;;;;;;;3.68;81.39;97261.77;1787851;77;21163;-82
2021/01/22 06:10:20;;;;;;;15.35;8.40;;;;;;;3.64;81.26;97248.69;1799526;79;21230;-81
2021/01/22 06:12:54;;;;;;;13.35;8.05;;;;;;;3.59;81.27;97259.73;1794468;77;21116;-81
2021/01/22 06:15:24;;;;;;;14.18;8.30;;;;;;;3.56;81.25;97256.05;1795817;79;21563;-85
2021/01/22 06:17:53;;;;;;;14.58;7.65;;;;;;;3.54;81.23;97255.30;1806819;79;21150;-80
2021/01/22 06:20:23;;;;;;;17.20;7.90;;;;;;;3.51;81.19;97252.90;1801527;78;21122;-84
2021/01/22 06:23:12;;;;;;;13.48;7.85;;;;;;;3.51;81.31;97252.90;1788028;79;22392;-81
2021/01/22 06:25:42;;;;;;;14.00;8.08;;;;;;;3.51;81.26;97242.11;1801317;79;21158;-83
2021/01/22 06:28:11;;;;;;;10.98;6.47;;;;;;;3.50;81.23;97249.92;1805131;79;21179;-81
2021/01/22 06:30:43;;;;;;;12.30;7.78;;;;;;;3.54;81.28;97248.84;1811676;79;21650;-87
2021/01/22 06:33:10;;;;;;;16.20;9.28;;;;;;;3.57;81.27;97247.38;1796797;79;21193;-81
2021/01/22 06:35:38;;;;;;;10.88;6.83;;;;;;;3.56;81.19;97248.30;1791010;79;21127;-85
2021/01/22 06:38:06;;;;;;;13.30;6.97;;;;;;;3.54;81.09;97243.22;1811638;77;21641;-80
2021/01/22 06:40:34;;;;;;;13.50;6.92;;;;;;;3.55;81.11;97241.47;1799017;77;21123;-82
2021/01/22 06:43:02;;;;;;;14.75;7.50;;;;;;;3.55;81.06;97242.75;1741227;80;21211;-86
2021/01/22 06:45:29;;;;;;;12.80;7.58;;;;;;;3.55;81.06;97236.30;1755966;80;21621;-85
2021/01/22 06:48:05;;;;;;;13.48;7.75;;;;;;;3.54;80.98;97238.52;1741415;82;21214;-85
2021/01/22 06:50:34;;;;;;;14.35;7.92;;;;;;;3.51;80.95;97236.13;1751854;80;21642;-78
2021/01/22 06:53:15;;;;;;;11.78;7.28;;;;;;;3.52;80.97;97242.47;1737740;80;22371;-77
2021/01/22 06:56:00;;;;;;;14.10;7.55;;;;;;;3.51;80.83;97242.58;1760461;80;21167;-75
2021/01/22 06:58:34;;;;;;;12.23;7.15;;;;;;;3.52;80.87;97241.64;1726806;81;21211;-76
2021/01/22 07:01:09;;;;;;;14.45;7.72;;;;;;;3.50;80.84;97236.59;1723720;82;21215;-76
2021/01/22 07:03:41;;;;;;;14.85;7.83;;;;;;;3.49;80.72;97239.25;1715672;82;21183;-75
2021/01/22 07:06:38;;;;;;;17.42;8.43;;;;;;;3.51;80.68;97242.58;1733742;82;21668;-79
2021/01/22 07:09:05;;;;;;;12.78;7.08;;;;;;;3.50;80.64;97238.31;1733109;82;21140;-85
2021/01/22 07:11:53;;;;;;;14.53;7.30;;;;;;;3.49;80.61;97227.64;1721958;82;21218;-76
2021/01/22 07:14:39;;;;;;;16.00;9.05;;;;;;;3.49;80.58;97236.67;1715650;83;21403;-77
2021/01/22 07:17:30;;;;;;;12.63;7.72;;;;;;;3.48;80.52;97232.44;1733429;81;21175;-76
2021/01/22 07:20:09;;;;;;;21.93;11.55;;;;;;;3.45;80.46;97224.88;1715897;83;21544;-75
2021/01/22 07:23:01;;;;;;;22.77;11.80;;;;;;;3.45;80.35;97206.36;1716686;82;21129;-83
2021/01/22 07:25:40;;;;;;;21.10;9.33;;;;;;;3.48;80.42;97222.12;1719208;81;21696;-86
2021/01/22 07:28:23;;;;;;;14.23;8.13;;;;;;;3.49;80.38;97201.84;1745456;82;21215;-86
2021/01/22 07:30:50;;;;;;;19.87;10.25;;;;;;;3.53;80.29;97200.29;1741812;82;22476;-87
2021/01/22 07:33:32;;;;;;;16.45;7.50;;;;;;;3.62;80.28;97201.49;1740188;82;21199;-86
2021/01/22 07:36:19;;;;;;;14.03;8.45;;;;;;;3.70;80.16;97207.03;1744389;82;21124;-87
2021/01/22 07:38:49;;;;;;;16.05;9.25;;;;;;;3.72;79.95;97194.84;1721264;82;21578;-86
2021/01/22 07:41:22;;;;;;;17.50;8.28;;;;;;;3.76;79.87;97204.08;1745416;82;21195;-86
2021/01/22 07:44:03;;;;;;;13.55;7.50;;;;;;;3.78;79.79;97204.83;1715961;83;21140;-85
2021/01/22 07:46:46;;;;;;;13.43;7.00;;;;;;;3.80;79.80;97201.67;1740321;82;21471;-87
2021/01/22 07:49:13;;;;;;;12.78;7.78;;;;;;;3.86;79.66;97193.19;1745839;82;21157;-76
2021/01/22 07:51:41;;;;;;;16.02;7.78;;;;;;;3.92;79.70;97195.39;1740700;81;21622;-74
2021/01/22 07:54:08;;;;;;;;;;;;;;;3.92;79.54;97178.18;1752826;81;22263;-76
2021/01/22 07:56:42;;;;;;;11.48;6.90;;;;;;;3.94;79.33;97181.94;1755888;81;20232;-76
2021/01/22 07:59:12;;;;;;;16.52;7.15;;;;;;;3.96;79.42;97180.10;1727738;83;21159;-76
2021/01/22 08:01:40;;;;;;;12.82;6.78;;;;;;;4.01;79.48;97172.91;1729969;81;21619;-76
2021/01/22 08:04:07;;;;;;;14.03;6.95;;;;;;;4.10;79.45;97173.63;1758150;81;21194;-77
2021/01/22 08:06:50;;;;;;;13.18;7.35;;;;;;;4.22;79.44;97178.02;1741511;81;22177;-78
2021/01/22 08:09:17;;;;;;;10.18;6.37;;;;;;;4.35;79.15;97175.98;1736432;81;21128;-77
2021/01/22 08:11:52;;;;;;;10.20;6.62;;;;;;;4.46;78.99;97180.02;1745131;81;21183;-80
2021/01/22 08:17:07;;;;;;;11.75;6.33;;;;;;;4.59;78.51;97180.05;1886318;76;22578;-81
2021/01/22 08:19:34;;;;;;;13.15;6.15;;;;;;;4.60;78.92;97179.14;1858837;76;21086;-77
2021/01/22 08:22:02;;;;;;;12.37;6.87;;;;;;;4.65;78.66;97165.00;1842895;77;21175;-79
2021/01/22 08:24:30;;;;;;;10.50;6.55;;;;;;;4.69;78.16;97171.61;1847947;77;21175;-76
2021/01/22 08:26:59;;;;;;;11.33;6.97;;;;;;;4.70;78.51;97168.13;1790811;80;21099;-78
2021/01/22 08:29:28;;;;;;;14.53;6.30;;;;;;;4.68;78.56;97162.22;1790729;80;21221;-77
2021/01/22 08:31:57;;;;;;;12.78;6.62;;;;;;;4.66;78.26;97161.48;1789667;80;21176;-85
2021/01/22 08:34:24;;;;;;;10.55;6.72;;;;;;;4.65;78.32;97176.62;1792814;78;21184;-80
2021/01/22 08:36:56;;;;;;;12.30;6.15;;;;;;;4.66;77.93;97164.06;1830707;77;21132;-85
2021/01/22 08:39:23;;;;;;;11.53;6.83;;;;;;;4.71;78.08;97163.30;1749725;81;21620;-85
2021/01/22 08:41:51;;;;;;;11.15;6.67;;;;;;;4.78;78.21;97156.44;1767687;80;21181;-77
2021/01/22 08:44:19;;;;;;;14.50;7.20;;;;;;;4.81;78.33;97153.66;1779363;80;21108;-80
2021/01/22 08:46:49;;;;;;;15.00;6.80;;;;;;;4.85;78.35;97151.25;1766373;79;21208;-77
2021/01/22 08:49:19;;;;;;;9.35;6.10;;;;;;;4.91;78.24;97154.72;1774885;78;21177;-77
2021/01/22 08:51:46;;;;;;;12.50;6.10;;;;;;;4.99;78.07;97156.34;1752928;80;21243;-77
2021/01/22 08:54:13;;;;;;;10.40;5.85;;;;;;;5.07;78.02;97151.94;1770734;80;21075;-77
2021/01/22 08:56:40;;;;;;;14.25;6.30;;;;;;;5.11;78.10;97156.82;1741143;80;21184;-76
2021/01/22 08:59:12;;;;;;;12.07;6.65;;;;;;;5.20;77.94;97162.31;1741355;81;21196;-85
2021/01/22 09:01:58;;;;;;;14.78;6.33;;;;;;;5.24;77.86;97158.61;1798218;78;21630;-87
2021/01/22 09:04:34;;;;;;;10.43;6.60;;;;;;;5.21;77.61;97159.64;1766165;78;21642;-78
2021/01/22 09:07:08;;;;;;;11.55;5.80;;;;;;;5.21;77.70;97167.41;1795973;79;21138;-77
2021/01/22 09:09:46;;;;;;;12.40;6.15;;;;;;;5.26;77.83;97161.91;1783176;79;21139;-81
2021/01/22 09:12:26;;;;;;;11.80;6.53;;;;;;;5.35;77.79;97166.02;1738545;81;22371;-78
2021/01/22 09:15:04;;;;;;;12.07;6.62;;;;;;;5.42;77.59;97165.13;1789332;79;21168;-78
2021/01/22 09:17:49;;;;;;;10.80;6.47;;;;;;;5.47;77.61;97160.48;1804762;79;21151;-77
2021/01/22 09:20:21;;;;;;;11.00;6.50;;;;;;;5.51;77.68;97165.80;1781040;80;21222;-78
2021/01/22 09:22:56;;;;;;;11.20;5.62;;;;;;;5.53;77.35;97156.17;1742106;80;21716;-84
2021/01/22 09:25:26;;;;;;;11.08;5.60;;;;;;;5.55;76.91;97155.61;1765503;80;21383;-82
2021/01/22 09:27:53;;;;;;;12.58;5.67;;;;;;;5.57;77.18;97146.00;1747056;80;21162;-76
2021/01/22 09:30:23;;;;;;;9.88;6.37;;;;;;;5.59;77.05;97153.17;1784317;79;21159;-76
2021/01/22 09:32:56;;;;;;;12.23;6.10;;;;;;;5.60;77.29;97153.55;1775838;79;21593;-77
2021/01/22 09:35:29;;;;;;;10.35;5.72;;;;;;;5.64;77.30;97140.39;1774354;78;24141;-77
2021/01/22 09:37:59;;;;;;;11.15;7.25;;;;;;;5.66;77.18;97144.97;1737640;80;22198;-78
2021/01/22 09:40:27;;;;;;;14.43;6.20;;;;;;;5.68;77.20;97139.23;1783404;78;21209;-87
2021/01/22 09:43:08;;;;;;;14.15;6.33;;;;;;;5.71;76.89;97136.43;1769056;80;21114;-83
2021/01/22 09:45:50;;;;;;;14.03;6.40;;;;;;;5.73;77.06;97135.87;1740186;80;21182;-85
2021/01/22 09:48:18;;;;;;;9.90;5.60;;;;;;;5.77;77.21;97136.00;1741258;80;21291;-88
2021/01/22 09:50:45;;;;;;;13.22;5.85;;;;;;;5.81;77.10;97132.28;1762313;80;21203;-89
2021/01/22 09:53:12;;;;;;;11.00;5.75;;;;;;;5.84;76.88;97134.66;1739145;80;21245;-82
2021/01/22 09:55:40;;;;;;;10.53;5.97;;;;;;;5.89;77.18;97137.77;1756467;80;21198;-89
2021/01/22 09:58:07;;;;;;;11.15;6.20;;;;;;;5.93;77.12;97136.63;1763340;80;21155;-88
2021/01/22 10:00:36;;;;;;;9.80;5.83;;;;;;;5.95;77.17;97132.19;1788955;79;21203;-84
2021/01/22 10:03:03;;;;;;;8.45;5.30;;;;;;;5.98;76.96;97143.63;1750643;80;26280;-87
2021/01/22 10:05:30;;;;;;;9.80;6.00;;;;;;;5.98;76.77;97138.44;1749979;81;21158;-85
2021/01/22 10:07:57;;;;;;;8.40;5.53;;;;;;;6.00;76.97;97145.64;1753040;81;21150;-76
2021/01/22 10:10:24;;;;;;;8.93;5.08;;;;;;;6.04;76.51;97130.70;1742973;81;21185;-85
2021/01/22 10:12:51;;;;;;;10.43;5.58;;;;;;;6.05;76.81;97140.98;1752826;81;21118;-89
2021/01/22 10:15:29;;;;;;;9.30;5.75;;;;;;;6.09;76.83;97132.98;1758763;80;22309;-91
2021/01/22 10:18:17;;;;;;;9.00;5.70;;;;;;;6.12;76.84;97152.20;1772619;80;21648;-92
2021/01/22 10:20:59;;;;;;;10.88;5.50;;;;;;;6.17;76.86;97143.64;1739201;81;21228;-89
2021/01/22 10:23:30;;;;;;;9.60;4.95;;;;;;;6.20;76.79;97151.20;1756666;81;21152;-80
2021/01/22 10:25:59;;;;;;;13.08;5.92;;;;;;;6.22;76.67;97151.92;1739769;81;21828;-84
2021/01/22 10:28:26;;;;;;;9.65;5.50;;;;;;;6.25;76.72;97159.48;1760859;80;21168;-84
2021/01/22 10:30:53;;;;;;;7.87;4.80;;;;;;;6.28;76.67;97151.48;1755819;81;21225;-82
2021/01/22 10:33:20;;;;;;;12.45;6.25;;;;;;;6.28;76.59;97138.53;1773752;80;21194;-81
2021/01/22 10:35:47;;;;;;;11.20;5.78;;;;;;;6.31;76.45;97144.78;1755621;80;21186;-81
2021/01/22 10:38:15;;;;;;;10.78;5.78;;;;;;;6.33;76.74;97150.70;1777165;80;21216;-84
2021/01/22 10:40:42;;;;;;;10.40;6.12;;;;;;;6.36;76.64;97146.59;1765133;80;21440;-77
2021/01/22 10:43:09;;;;;;;12.03;6.00;;;;;;;6.39;76.38;97145.55;1790792;79;21189;-77
2021/01/22 10:45:36;;;;;;;11.10;5.67;;;;;;;6.38;76.45;97142.09;1719380;81;21214;-77
2021/01/22 10:48:04;;;;;;;12.25;5.92;;;;;;;6.38;76.36;97140.80;1756240;81;21633;-87
2021/01/22 10:50:31;;;;;;;7.78;5.22;;;;;;;6.41;76.36;97141.91;1735829;81;21206;-84
2021/01/22 10:52:58;;;;;;;9.58;5.35;;;;;;;6.45;76.45;97138.14;1757630;81;21162;-84
2021/01/22 10:55:25;;;;;;;11.35;5.75;;;;;;;6.50;76.49;97134.76;1756733;80;21118;-87
2021/01/22 10:57:52;;;;;;;8.75;5.60;;;;;;;6.57;76.48;97140.80;1735884;80;21285;-85
2021/01/22 11:00:20;;;;;;;;;;;;;;;6.62;76.27;97134.34;1749296;81;21176;-86
2021/01/22 11:02:48;;;;;;;10.50;6.05;;;;;;;6.67;76.09;97146.98;1764009;80;20224;-84
2021/01/22 11:05:15;;;;;;;;;;;;;;;6.71;76.37;97138.02;1753078;80;21211;-85
2021/01/22 11:07:42;;;;;;;8.90;5.58;;;;;;;6.77;76.27;97145.34;1744783;81;20314;-88
2021/01/22 11:10:10;;;;;;;11.00;5.78;;;;;;;6.78;76.32;97144.43;1756036;81;28255;-87
2021/01/22 11:12:37;;;;;;;;;;;;;;;6.77;76.17;97150.54;1745843;81;21657;-89
2021/01/22 11:15:06;;;;;;;10.40;6.50;;;;;;;6.80;76.34;97154.20;1779131;80;20309;-88
2021/01/22 11:17:34;;;;;;;10.78;6.22;;;;;;;6.83;76.42;97147.48;1792559;79;21393;-88
2021/01/22 11:20:03;;;;;;;16.55;6.83;;;;;;;6.88;76.45;97144.57;1772343;80;21658;-85
2021/01/22 11:22:34;;;;;;;10.40;5.72;;;;;;;6.94;76.43;97154.02;1768196;79;21194;-89
2021/01/22 11:25:02;;;;;;;12.65;6.28;;;;;;;7.03;76.53;97150.39;1776202;79;21147;-86
2021/01/22 11:27:29;;;;;;;12.28;5.83;;;;;;;7.08;76.34;97157.37;1779206;78;21586;-88
2021/01/22 11:29:56;;;;;;;10.63;5.10;;;;;;;7.09;76.47;97147.37;1782699;80;21270;-83
2021/01/22 11:32:23;;;;;;;8.78;5.30;;;;;;;7.13;76.31;97151.37;1734636;81;21235;-84
2021/01/22 11:34:49;;;;;;;8.53;4.70;;;;;;;7.16;76.08;97143.36;1764868;80;21199;-86
2021/01/22 11:37:16;;;;;;;12.30;5.67;;;;;;;7.22;76.24;97144.19;1776455;80;21203;-87
2021/01/22 11:39:43;;;;;;;6.50;4.90;;;;;;;7.24;76.14;97122.85;1763074;80;21167;-84
2021/01/22 11:42:10;;;;;;;9.63;5.12;;;;;;;7.28;76.00;97133.38;1777709;80;21206;-88
2021/01/22 11:44:38;;;;;;;8.83;4.58;;;;;;;7.31;75.94;97130.55;1764227;80;21204;-87
2021/01/22 11:47:07;;;;;;;8.65;4.92;;;;;;;7.35;75.91;97125.47;1764980;80;21118;-84
2021/01/22 11:49:33;;;;;;;9.10;4.50;;;;;;;7.39;76.04;97121.72;1743004;81;21178;-86
2021/01/22 11:52:00;;;;;;;9.23;4.58;;;;;;;7.43;75.83;97125.38;1760330;80;21155;-85
2021/01/22 11:54:27;;;;;;;9.08;4.97;;;;;;;7.44;75.75;97120.52;1774520;80;21197;-84
2021/01/22 11:56:54;;;;;;;10.53;5.00;;;;;;;7.45;75.73;97124.77;1760391;79;21222;-86